EmailTwitter


Observations de surface / Québec / CYUL (71627)

Régions: Québec | Canada | États-Unis | Europe | France | UK | Ailleurs
Station
Affichage
Infos & localisation pour CYUL (71627) | Aide pour décoder les METARs

Observations prises le 2020-09-22 à 02H00 UTC à MONTREAL INTL A, QB (CYUL)

Etat du ciel: dégagé.

Température: 8.0 Celsius

Point de rosée: 2.0 Celsius

Humidité relative: 66%

Vents: Calme à 0 km/h ou 0 noeuds.

Pression au niveau moyen de la mer: 103.05 kilopascals.

Calage altimétrique: 103.01 kilopascals ou 30.42 pouces de mercure.

Visibilité horizontale: 15.00 milles terrestres ou 24.00 kilomètres.

Observation METAR:

CYUL 220200Z 00000KT 15SM SKC 08/02 A3042 RMK SLP305=